Cecil, Alabama
Current Conditions -  °F | °C
As of 5:58 PM on Sunday 25 Jan 2015 (Local Time) from KMXF Reporting Station
Clear Clear  
Wind Chill: 57°   Ceiling: Unl
Heat Index: 57°   Visibility: 10mi
Dew Point: 39°   Wind: 6mph
Humidity: 51%   Direction: 200°SSW
Pressure: 29.79"   Gusts: NA
Location:  32.3°N, 86.01°W
Report Text: KMXF 252358Z AUTO 20005KT 10SM CLR 14/04 A2979 RMK AO2 SLP091 T01380037 10180 20138 53007
Loading
Personal Weather Stations






























Interactive Weather Map New forecast layout! Learn more

10-Day Weather Forecast

Advertisements
Track Severe Weather on mobile